createdAt,value
2017-09-04T00:00:32.639Z,13.15
2017-09-04T00:02:59.331Z,13.30
2017-09-04T00:05:25.995Z,13.52
2017-09-04T00:07:52.681Z,12.77
2017-09-04T00:10:19.334Z,13.00
2017-09-04T00:12:45.986Z,12.93
2017-09-04T00:15:12.647Z,13.68
2017-09-04T00:17:39.307Z,11.55
2017-09-04T00:20:05.970Z,11.43
2017-09-04T00:22:32.630Z,13.15
2017-09-04T00:24:59.314Z,12.60
2017-09-04T00:27:25.980Z,11.55
2017-09-04T00:29:52.667Z,12.82
2017-09-04T00:32:19.328Z,12.68
2017-09-04T00:34:45.998Z,11.95
2017-09-04T00:37:12.659Z,13.57
2017-09-04T00:39:39.319Z,12.70
2017-09-04T00:42:05.982Z,12.73
2017-09-04T00:44:32.639Z,11.73
2017-09-04T00:46:59.300Z,13.50
2017-09-04T00:49:25.959Z,12.30
2017-09-04T00:51:52.653Z,12.98
2017-09-04T00:54:19.316Z,12.48
2017-09-04T00:56:46.000Z,11.07
2017-09-04T00:59:12.658Z,12.55
2017-09-04T01:01:39.316Z,12.95
2017-09-04T01:04:05.983Z,11.65
2017-09-04T01:06:32.642Z,12.70
2017-09-04T01:08:59.303Z,12.98
2017-09-04T01:11:25.968Z,12.63
2017-09-04T01:13:52.654Z,12.05
2017-09-04T01:16:19.323Z,11.30
2017-09-04T01:18:46.006Z,12.00
2017-09-04T01:21:12.668Z,12.50
2017-09-04T01:23:39.351Z,14.00
2017-09-04T01:26:06.012Z,12.00
2017-09-04T01:28:32.675Z,12.88
2017-09-04T01:30:59.344Z,12.70
2017-09-04T01:33:26.007Z,12.98
2017-09-04T01:35:52.666Z,12.05
2017-09-04T01:38:19.327Z,12.07
2017-09-04T01:40:45.998Z,12.35
2017-09-04T01:43:12.659Z,11.93
2017-09-04T01:45:39.345Z,12.75
2017-09-04T01:48:06.003Z,11.45
2017-09-04T01:50:32.687Z,12.05
2017-09-04T01:52:59.347Z,12.25
2017-09-04T01:55:26.035Z,11.43
2017-09-04T01:57:52.705Z,11.82
2017-09-04T02:00:19.386Z,11.63
2017-09-04T02:02:46.051Z,11.45
2017-09-04T02:05:12.730Z,11.18
2017-09-04T02:07:39.395Z,11.20
2017-09-04T02:10:06.063Z,12.02
2017-09-04T02:12:32.719Z,10.32
2017-09-04T02:14:59.389Z,11.32
2017-09-04T02:17:26.074Z,12.00
2017-09-04T02:19:52.743Z,11.80
2017-09-04T02:22:19.419Z,10.52
2017-09-04T02:24:46.078Z,10.15
2017-09-04T02:27:12.772Z,12.35
2017-09-04T02:29:39.427Z,11.70
2017-09-04T02:32:06.078Z,11.70
2017-09-04T02:34:32.726Z,10.32
2017-09-04T02:36:59.387Z,11.12
2017-09-04T02:39:26.052Z,11.50
2017-09-04T02:41:52.719Z,11.48
2017-09-04T02:44:19.403Z,11.30
2017-09-04T02:46:46.072Z,10.93
2017-09-04T02:49:12.759Z,10.48
2017-09-04T02:51:39.432Z,11.75
2017-09-04T02:54:06.092Z,11.63
2017-09-04T02:56:32.743Z,10.40
2017-09-04T02:58:59.404Z,12.52
2017-09-04T03:01:26.075Z,11.10
2017-09-04T03:03:52.735Z,12.20
2017-09-04T03:06:19.424Z,12.07
2017-09-04T03:08:46.087Z,12.50
2017-09-04T03:11:12.787Z,11.93
2017-09-04T03:13:39.444Z,12.02
2017-09-04T03:16:06.107Z,11.20
2017-09-04T03:18:32.771Z,11.75
2017-09-04T03:20:59.435Z,11.68
2017-09-04T03:23:26.091Z,11.38
2017-09-04T03:25:52.751Z,12.00
2017-09-04T03:28:19.415Z,11.20
2017-09-04T03:30:46.068Z,12.93
2017-09-04T03:33:12.756Z,11.55
2017-09-04T03:35:39.416Z,10.35
2017-09-04T03:38:06.075Z,11.18
2017-09-04T03:40:32.738Z,12.15
2017-09-04T03:42:59.394Z,12.05
2017-09-04T03:45:26.055Z,10.93
2017-09-04T03:47:52.742Z,11.57
2017-09-04T03:50:19.414Z,13.02
2017-09-04T03:52:46.079Z,11.68
2017-09-04T03:55:12.772Z,12.48
2017-09-04T03:57:39.436Z,13.50
2017-09-04T04:00:06.095Z,11.82
2017-09-04T04:02:32.764Z,11.40
2017-09-04T04:04:59.419Z,9.85
2017-09-04T04:07:26.083Z,10.32
2017-09-04T04:09:52.735Z,10.80
2017-09-04T04:12:19.423Z,11.25
2017-09-04T04:14:46.087Z,12.93
2017-09-04T04:17:12.747Z,12.77
2017-09-04T04:19:39.427Z,11.35
2017-09-04T04:22:06.096Z,11.35
2017-09-04T04:24:32.795Z,11.65
2017-09-04T04:26:59.455Z,12.15
2017-09-04T04:29:26.139Z,11.20
2017-09-04T04:31:52.807Z,12.55
2017-09-04T04:34:19.490Z,11.90
2017-09-04T04:36:46.147Z,11.30
2017-09-04T04:39:12.828Z,10.45
2017-09-04T04:41:39.487Z,11.55
2017-09-04T04:44:06.147Z,12.75
2017-09-04T04:46:32.804Z,12.52
2017-09-04T04:48:59.463Z,12.15
2017-09-04T04:51:26.127Z,11.30
2017-09-04T04:53:52.788Z,11.93
2017-09-04T04:56:19.475Z,11.10
2017-09-04T04:58:46.135Z,11.07
2017-09-04T05:01:12.823Z,10.90
2017-09-04T05:03:39.485Z,10.93
2017-09-04T05:06:06.168Z,11.85
2017-09-04T05:08:32.818Z,11.18
2017-09-04T05:10:59.504Z,13.07
2017-09-04T05:13:26.163Z,12.52
2017-09-04T05:15:52.831Z,12.30
2017-09-04T05:18:19.491Z,11.70
2017-09-04T05:20:46.151Z,11.43
2017-09-04T05:23:12.886Z,10.80
2017-09-04T05:25:39.548Z,11.55
2017-09-04T05:28:06.239Z,11.40
2017-09-04T05:30:32.898Z,11.05
2017-09-04T05:32:59.583Z,10.80
2017-09-04T05:35:26.256Z,12.93
2017-09-04T05:37:52.946Z,10.80
2017-09-04T05:40:19.612Z,11.82
2017-09-04T05:42:46.316Z,10.80
2017-09-04T05:45:12.979Z,10.20
2017-09-04T05:47:39.662Z,10.23
2017-09-04T05:50:06.321Z,9.63
2017-09-04T05:52:33.002Z,10.60
2017-09-04T05:54:59.675Z,11.07
2017-09-04T05:57:26.335Z,10.60
2017-09-04T05:59:53.000Z,11.75
2017-09-04T06:02:19.672Z,11.43
2017-09-04T06:04:46.360Z,11.43
2017-09-04T06:07:13.022Z,12.27
2017-09-04T06:09:39.712Z,11.68
2017-09-04T06:12:06.379Z,13.02
2017-09-04T06:14:33.070Z,12.63
2017-09-04T06:16:59.734Z,12.95
2017-09-04T06:19:26.427Z,12.27
2017-09-04T06:21:53.087Z,12.37
2017-09-04T06:24:19.743Z,14.27
2017-09-04T06:26:46.407Z,13.25
2017-09-04T06:29:13.084Z,13.80
2017-09-04T06:31:39.743Z,12.90
2017-09-04T06:34:06.412Z,13.13
2017-09-04T06:36:33.100Z,13.77
2017-09-04T06:38:59.773Z,13.48
2017-09-04T06:41:26.455Z,12.18
2017-09-04T06:43:53.111Z,10.27
2017-09-04T06:46:19.784Z,9.10
2017-09-04T06:48:46.448Z,9.10
2017-09-04T06:51:13.127Z,9.70
2017-09-04T06:53:39.783Z,9.33
2017-09-04T06:56:06.439Z,9.90
2017-09-04T06:58:33.092Z,9.37
2017-09-04T07:00:59.748Z,9.60
2017-09-04T07:03:26.411Z,10.40
2017-09-04T07:05:53.075Z,11.63
2017-09-04T07:08:19.761Z,11.97
2017-09-04T07:10:46.469Z,13.73
2017-09-04T07:13:13.158Z,13.57
2017-09-04T07:15:39.820Z,16.13
2017-09-04T07:18:06.503Z,15.63
2017-09-04T07:20:33.163Z,15.57
2017-09-04T07:22:59.842Z,15.57
2017-09-04T07:25:26.499Z,13.53
2017-09-04T07:27:53.197Z,26.93
2017-09-04T07:30:19.854Z,32.40
2017-09-04T07:32:46.507Z,36.23
2017-09-04T07:35:13.170Z,46.50
2017-09-04T07:37:39.831Z,51.20
2017-09-04T07:40:06.520Z,51.90
2017-09-04T07:42:33.214Z,65.47
2017-09-04T07:44:59.895Z,58.03
2017-09-04T07:47:26.564Z,63.53
2017-09-04T07:49:53.252Z,65.10
2017-09-04T07:52:19.920Z,52.10
2017-09-04T07:54:46.620Z,34.93
2017-09-04T07:57:13.283Z,31.53
2017-09-04T07:59:39.995Z,30.90
2017-09-04T08:02:06.656Z,29.90
2017-09-04T08:04:33.310Z,32.37
2017-09-04T08:06:59.991Z,27.93
2017-09-04T08:09:26.648Z,21.17
2017-09-04T08:11:53.347Z,14.53
2017-09-04T08:14:19.998Z,9.97
2017-09-04T08:16:46.643Z,8.93
2017-09-04T08:19:13.388Z,7.77
2017-09-04T08:21:40.046Z,7.57
2017-09-04T08:24:06.691Z,6.80
2017-09-04T08:26:33.345Z,5.70
2017-09-04T08:29:00.002Z,6.07
2017-09-04T08:31:26.659Z,5.50
2017-09-04T08:33:53.307Z,4.90
2017-09-04T08:36:19.967Z,4.87
2017-09-04T08:38:46.651Z,4.40
2017-09-04T08:41:13.300Z,5.00
2017-09-04T08:43:39.991Z,4.90
2017-09-04T08:46:06.639Z,4.83
2017-09-04T08:48:33.287Z,4.70
2017-09-04T08:50:59.935Z,5.30
2017-09-04T08:53:26.583Z,4.90
2017-09-04T08:55:53.250Z,4.80
2017-09-04T08:58:19.899Z,5.43
2017-09-04T09:00:46.555Z,4.90
2017-09-04T09:03:13.203Z,4.93
2017-09-04T09:05:39.909Z,4.90
2017-09-04T09:08:06.555Z,4.90
2017-09-04T09:10:33.212Z,4.57
2017-09-04T09:12:59.858Z,5.10
2017-09-04T09:15:26.503Z,4.80
2017-09-04T09:17:53.147Z,4.83
2017-09-04T09:20:19.795Z,5.20
2017-09-04T09:22:46.443Z,4.70
2017-09-04T09:25:13.101Z,4.87
2017-09-04T09:27:39.760Z,5.53
2017-09-04T09:30:06.407Z,5.17
2017-09-04T09:32:33.091Z,4.90
2017-09-04T09:34:59.749Z,4.47
2017-09-04T09:37:26.399Z,4.50
2017-09-04T09:39:53.052Z,4.63
2017-09-04T09:42:19.815Z,4.60
2017-09-04T09:44:46.459Z,5.53
2017-09-04T09:47:13.112Z,5.00
2017-09-04T09:49:39.762Z,4.90
2017-09-04T09:52:06.516Z,5.50
2017-09-04T09:54:33.192Z,4.63
2017-09-04T09:56:59.844Z,5.27
2017-09-04T09:59:26.491Z,4.80
2017-09-04T10:01:53.167Z,4.40
2017-09-04T10:04:19.815Z,5.03
2017-09-04T10:06:46.495Z,5.10
2017-09-04T10:09:13.147Z,4.07
2017-09-04T10:11:39.828Z,4.90
2017-09-04T10:14:06.537Z,4.57
2017-09-04T10:16:33.227Z,5.43
2017-09-04T10:18:59.876Z,5.50
2017-09-04T10:21:26.527Z,5.87
2017-09-04T10:23:53.171Z,5.00
2017-09-04T10:26:19.831Z,4.10
2017-09-04T10:28:46.487Z,4.53
2017-09-04T10:31:13.134Z,43.80
2017-09-04T10:33:39.785Z,8.67
2017-09-04T10:36:06.439Z,5.60
2017-09-04T10:38:33.115Z,6.53
2017-09-04T10:40:59.763Z,4.87
2017-09-04T10:43:26.435Z,5.50
2017-09-04T10:45:53.083Z,5.37
2017-09-04T10:48:19.770Z,7.93
2017-09-04T10:50:46.424Z,7.17
2017-09-04T10:53:13.074Z,6.60
2017-09-04T10:55:39.723Z,6.90
2017-09-04T10:58:06.377Z,7.40
2017-09-04T11:00:33.051Z,8.50
2017-09-04T11:02:59.702Z,7.40
2017-09-04T11:05:26.387Z,7.17
2017-09-04T11:07:53.044Z,6.70
2017-09-04T11:10:19.715Z,8.20
2017-09-04T11:12:46.372Z,8.40
2017-09-04T11:15:13.053Z,7.57
2017-09-04T11:17:39.698Z,6.90
2017-09-04T11:20:06.375Z,7.00
2017-09-04T11:22:33.125Z,6.53
2017-09-04T11:24:59.819Z,7.10
2017-09-04T11:27:26.472Z,6.83
2017-09-04T11:29:53.123Z,7.17
2017-09-04T11:32:19.767Z,6.33
2017-09-04T11:34:46.419Z,7.30
2017-09-04T11:37:13.099Z,8.30
2017-09-04T11:39:39.752Z,6.60
2017-09-04T11:42:06.428Z,6.03
2017-09-04T11:44:33.075Z,6.13
2017-09-04T11:46:59.755Z,7.57
2017-09-04T11:49:26.403Z,7.27
2017-09-04T11:51:53.095Z,7.43
2017-09-04T11:54:19.748Z,5.60
2017-09-04T11:56:46.399Z,6.80
2017-09-04T11:59:13.056Z,6.03
2017-09-04T12:01:39.703Z,5.60
2017-09-04T12:04:06.414Z,6.30
2017-09-04T12:06:33.068Z,8.33
2017-09-04T12:08:59.739Z,6.90
2017-09-04T12:11:26.416Z,6.33
2017-09-04T12:13:53.119Z,6.30
2017-09-04T12:16:19.775Z,6.80
2017-09-04T12:18:46.424Z,6.93
2017-09-04T12:21:13.071Z,8.20
2017-09-04T12:23:39.724Z,8.13
2017-09-04T12:26:06.376Z,6.80
2017-09-04T12:28:33.027Z,6.30
2017-09-04T12:30:59.674Z,7.60
2017-09-04T12:33:26.323Z,7.33
2017-09-04T12:35:52.995Z,5.83
2017-09-04T12:38:19.662Z,5.40
2017-09-04T12:40:46.340Z,7.80
2017-09-04T12:43:12.995Z,7.40
2017-09-04T12:45:39.644Z,7.13
2017-09-04T12:48:06.291Z,5.87
2017-09-04T12:50:32.943Z,8.60
2017-09-04T12:52:59.587Z,6.73
2017-09-04T12:55:26.244Z,6.60
2017-09-04T12:57:52.893Z,9.20
2017-09-04T13:00:19.543Z,7.83
2017-09-04T13:02:46.216Z,7.63
2017-09-04T13:05:12.867Z,6.30
2017-09-04T13:07:40.335Z,7.13
2017-09-04T13:10:08.947Z,6.73
2017-09-04T13:12:35.624Z,7.03
2017-09-04T13:15:08.039Z,5.83
2017-09-04T13:17:49.595Z,5.97
2017-09-04T13:20:22.091Z,5.53
2017-09-04T13:22:49.632Z,6.17
2017-09-04T13:25:22.027Z,5.50
2017-09-04T13:28:03.580Z,5.60
2017-09-04T13:30:47.052Z,5.70
2017-09-04T13:33:19.370Z,5.93
2017-09-04T13:35:51.867Z,6.10
2017-09-04T13:38:24.282Z,6.37
2017-09-04T13:40:56.672Z,6.60
2017-09-04T13:43:29.008Z,6.57
2017-09-04T13:46:01.422Z,6.93
2017-09-04T13:48:42.978Z,7.03
2017-09-04T13:51:15.471Z,7.13
2017-09-04T13:53:47.939Z,7.17
2017-09-04T13:56:20.363Z,7.00
2017-09-04T13:59:01.954Z,7.73
2017-09-04T14:01:45.167Z,6.53
2017-09-04T14:04:17.543Z,6.03
2017-09-04T14:06:59.081Z,6.73
2017-09-04T14:09:31.423Z,5.80
2017-09-04T14:12:15.927Z,11.03
2017-09-04T14:14:42.628Z,7.20
2017-09-04T14:17:30.103Z,6.97
2017-09-04T14:19:56.803Z,6.83
2017-09-04T14:22:23.452Z,7.33
2017-09-04T14:24:50.101Z,7.20
2017-09-04T14:27:16.775Z,7.00
2017-09-04T14:29:43.427Z,6.93
2017-09-04T14:32:10.320Z,7.40
2017-09-04T14:34:36.968Z,6.40
2017-09-04T14:37:03.616Z,6.93
2017-09-04T14:39:30.263Z,7.00
2017-09-04T14:41:56.924Z,6.90
2017-09-04T14:44:33.485Z,7.40
2017-09-04T14:47:02.938Z,7.60
2017-09-04T14:49:29.592Z,7.47
2017-09-04T14:51:56.267Z,8.90
2017-09-04T14:54:22.916Z,8.17
2017-09-04T14:56:49.571Z,8.63
2017-09-04T14:59:16.224Z,6.90
2017-09-04T15:01:42.876Z,9.50
2017-09-04T15:04:09.528Z,8.90
2017-09-04T15:06:36.175Z,8.73
2017-09-04T15:09:02.832Z,7.00
2017-09-04T15:11:29.487Z,7.80
2017-09-04T15:13:56.168Z,8.07
2017-09-04T15:16:22.823Z,7.83
2017-09-04T15:18:49.494Z,8.57
2017-09-04T15:21:16.162Z,6.63
2017-09-04T15:23:42.883Z,8.00
2017-09-04T15:26:09.536Z,8.70
2017-09-04T15:28:36.207Z,7.93
2017-09-04T15:31:02.856Z,8.70
2017-09-04T15:33:29.531Z,8.63
2017-09-04T15:35:56.180Z,9.23
2017-09-04T15:38:22.859Z,8.67
2017-09-04T15:40:49.516Z,9.60
2017-09-04T15:43:16.175Z,8.40
2017-09-04T15:45:42.827Z,8.73
2017-09-04T15:48:09.488Z,9.50
2017-09-04T15:50:36.160Z,8.77
2017-09-04T15:53:02.807Z,8.40
2017-09-04T15:55:29.489Z,9.27
2017-09-04T15:57:56.155Z,10.17
2017-09-04T16:00:22.828Z,9.20
2017-09-04T16:02:49.475Z,9.00
2017-09-04T16:05:16.151Z,10.27
2017-09-04T16:07:57.684Z,9.37
2017-09-04T16:10:24.363Z,8.40
2017-09-04T16:12:53.648Z,7.47
2017-09-04T16:15:25.231Z,8.13
2017-09-04T16:18:07.546Z,7.87
2017-09-04T16:20:53.987Z,8.70
2017-09-04T16:23:24.299Z,8.77
2017-09-04T16:26:05.867Z,10.17
2017-09-04T16:28:33.275Z,10.43
2017-09-04T16:31:02.513Z,9.77
2017-09-04T16:33:44.815Z,9.17
2017-09-04T16:36:15.983Z,8.30
2017-09-04T16:38:48.523Z,8.23
2017-09-04T16:41:30.102Z,9.23
2017-09-04T16:44:14.579Z,8.17
2017-09-04T16:46:48.864Z,8.60
2017-09-04T16:49:17.038Z,11.43
2017-09-04T16:51:53.636Z,9.80
2017-09-04T16:54:37.912Z,8.85
2017-09-04T16:57:07.276Z,9.07
2017-09-04T16:59:33.937Z,9.40
2017-09-04T17:02:00.602Z,8.80
2017-09-04T17:04:27.260Z,9.77
2017-09-04T17:06:53.932Z,9.10
2017-09-04T17:09:20.677Z,8.25
2017-09-04T17:11:52.124Z,8.80
2017-09-04T17:14:18.807Z,8.90
2017-09-04T17:16:46.251Z,8.88
2017-09-04T17:19:16.656Z,8.40
2017-09-04T17:21:44.183Z,10.38
2017-09-04T17:24:11.550Z,11.75
2017-09-04T17:26:38.207Z,10.93
2017-09-04T17:29:04.896Z,12.48
2017-09-04T17:31:31.555Z,12.25
2017-09-04T17:33:58.240Z,11.12
2017-09-04T17:36:24.899Z,11.55
2017-09-04T17:38:51.587Z,11.52
2017-09-04T17:41:18.246Z,10.70
2017-09-04T17:43:44.940Z,10.80
2017-09-04T17:46:11.602Z,10.90
2017-09-04T17:48:38.260Z,10.68
2017-09-04T17:51:04.946Z,12.32
2017-09-04T17:53:31.603Z,12.68
2017-09-04T17:55:58.267Z,11.20
2017-09-04T17:58:24.928Z,13.68
2017-09-04T18:00:51.591Z,12.98
2017-09-04T18:03:18.255Z,23.45
2017-09-04T18:05:44.940Z,14.13
2017-09-04T18:08:11.604Z,13.00
2017-09-04T18:10:38.287Z,14.38
2017-09-04T18:13:04.947Z,13.88
2017-09-04T18:15:31.647Z,12.43
2017-09-04T18:17:58.306Z,13.65
2017-09-04T18:20:25.042Z,14.20
2017-09-04T18:22:51.706Z,14.50
2017-09-04T18:25:18.559Z,13.95
2017-09-04T18:27:45.533Z,14.35
2017-09-04T18:30:12.191Z,13.30
2017-09-04T18:32:38.878Z,13.62
2017-09-04T18:35:05.605Z,13.13
2017-09-04T18:37:32.272Z,13.00
2017-09-04T18:39:58.931Z,13.62
2017-09-04T18:42:25.615Z,13.98
2017-09-04T18:44:52.276Z,13.85
2017-09-04T18:47:18.935Z,14.57
2017-09-04T18:49:45.599Z,14.77
2017-09-04T18:52:12.295Z,13.60
2017-09-04T18:54:38.956Z,17.00
2017-09-04T18:57:05.619Z,15.77
2017-09-04T18:59:32.278Z,13.13
2017-09-04T19:01:58.951Z,13.88
2017-09-04T19:04:25.612Z,12.98
2017-09-04T19:06:52.283Z,14.60
2017-09-04T19:09:18.943Z,15.98
2017-09-04T19:11:45.612Z,14.87
2017-09-04T19:14:12.275Z,16.42
2017-09-04T19:16:38.947Z,15.10
2017-09-04T19:19:05.635Z,16.30
2017-09-04T19:21:32.340Z,15.90
2017-09-04T19:23:59.003Z,15.57
2017-09-04T19:26:25.673Z,15.65
2017-09-04T19:28:52.339Z,16.40
2017-09-04T19:31:19.008Z,15.63
2017-09-04T19:33:45.668Z,15.98
2017-09-04T19:36:12.340Z,18.10
2017-09-04T19:38:39.039Z,18.98
2017-09-04T19:41:05.728Z,19.33
2017-09-04T19:43:32.403Z,19.30
2017-09-04T19:45:59.061Z,18.73
2017-09-04T19:48:25.739Z,19.60
2017-09-04T19:50:52.427Z,19.25
2017-09-04T19:53:19.091Z,20.65
2017-09-04T19:55:45.766Z,18.90
2017-09-04T19:58:12.427Z,21.02
2017-09-04T20:00:39.088Z,20.27
2017-09-04T20:03:05.751Z,21.10
2017-09-04T20:05:32.444Z,19.55
2017-09-04T20:07:59.103Z,20.02
2017-09-04T20:10:25.767Z,20.33
2017-09-04T20:12:52.464Z,20.52
2017-09-04T20:15:19.127Z,19.25
2017-09-04T20:17:45.787Z,19.23
2017-09-04T20:20:12.451Z,18.55
2017-09-04T20:22:39.217Z,18.80
2017-09-04T20:25:05.879Z,19.62
2017-09-04T20:27:32.571Z,20.95
2017-09-04T20:29:59.231Z,18.50
2017-09-04T20:32:25.919Z,18.37
2017-09-04T20:34:53.399Z,18.42
2017-09-04T20:37:20.111Z,18.98
2017-09-04T20:39:46.815Z,20.70
2017-09-04T20:42:13.484Z,18.55
2017-09-04T20:44:40.163Z,20.62
2017-09-04T20:47:06.839Z,20.90
2017-09-04T20:49:33.534Z,24.70
2017-09-04T20:52:00.204Z,21.85
2017-09-04T20:54:26.891Z,21.67
2017-09-04T20:56:53.555Z,21.70
2017-09-04T20:59:20.252Z,23.60
2017-09-04T21:01:46.915Z,22.40
2017-09-04T21:04:13.604Z,21.33
2017-09-04T21:06:40.268Z,20.60
2017-09-04T21:09:06.974Z,20.20
2017-09-04T21:11:33.636Z,21.90
2017-09-04T21:14:00.299Z,21.52
2017-09-04T21:16:26.963Z,20.73
2017-09-04T21:18:53.648Z,20.83
2017-09-04T21:21:20.340Z,20.37
2017-09-04T21:23:47.001Z,19.75
2017-09-04T21:26:13.688Z,20.77
2017-09-04T21:28:40.347Z,21.35
2017-09-04T21:31:07.031Z,21.83
2017-09-04T21:33:33.696Z,20.42
2017-09-04T21:36:00.383Z,21.20
2017-09-04T21:38:27.047Z,21.25
2017-09-04T21:40:53.740Z,22.60
2017-09-04T21:43:20.411Z,20.55
2017-09-04T21:45:47.075Z,21.17
2017-09-04T21:48:13.739Z,22.58
2017-09-04T21:50:40.399Z,21.90
2017-09-04T21:53:07.088Z,21.20
2017-09-04T21:55:33.757Z,21.37
2017-09-04T21:58:00.439Z,21.20
2017-09-04T22:00:27.100Z,21.98
2017-09-04T22:02:53.787Z,21.30
2017-09-04T22:05:20.447Z,23.05
2017-09-04T22:07:47.107Z,20.75
2017-09-04T22:10:13.768Z,21.27
2017-09-04T22:12:40.431Z,20.60
2017-09-04T22:15:07.096Z,19.05
2017-09-04T22:17:33.764Z,21.05
2017-09-04T22:20:00.451Z,21.92
2017-09-04T22:22:27.111Z,20.55
2017-09-04T22:24:53.796Z,21.30
2017-09-04T22:27:20.457Z,22.20
2017-09-04T22:29:47.143Z,21.10
2017-09-04T22:32:13.804Z,22.02
2017-09-04T22:34:40.508Z,25.23
2017-09-04T22:37:07.170Z,26.08
2017-09-04T22:39:33.827Z,24.75
2017-09-04T22:42:00.488Z,26.30
2017-09-04T22:44:27.150Z,23.85
2017-09-04T22:46:53.807Z,22.73
2017-09-04T22:49:20.492Z,23.00
2017-09-04T22:51:47.152Z,24.12
2017-09-04T22:54:13.811Z,23.38
2017-09-04T22:56:40.499Z,23.77
2017-09-04T22:59:07.640Z,23.45
2017-09-04T23:01:34.323Z,23.05
2017-09-04T23:04:00.984Z,24.67
2017-09-04T23:06:27.667Z,23.62
2017-09-04T23:08:54.331Z,24.10
2017-09-04T23:11:21.023Z,24.55
2017-09-04T23:13:47.683Z,25.20
2017-09-04T23:16:14.344Z,24.12
2017-09-04T23:18:41.004Z,25.08
2017-09-04T23:21:07.667Z,26.10
2017-09-04T23:23:34.335Z,27.70
2017-09-04T23:26:01.000Z,23.10
2017-09-04T23:28:27.667Z,24.63
2017-09-04T23:30:54.328Z,23.17
2017-09-04T23:33:21.010Z,24.12
2017-09-04T23:35:47.689Z,24.70
2017-09-04T23:38:14.371Z,24.37
2017-09-04T23:40:41.028Z,22.80
2017-09-04T23:43:07.692Z,24.42
2017-09-04T23:45:34.351Z,23.23
2017-09-04T23:48:01.012Z,23.90
2017-09-04T23:50:27.672Z,23.87
2017-09-04T23:52:54.339Z,23.77
2017-09-04T23:55:21.079Z,25.02
2017-09-04T23:57:47.739Z,23.70
